Time;durP1;ratioP1;P1;durP2;ratioP2;P2;SDS_P1;SDS_P2;PMS_P1;PMS_P2;Temp;Humidity;BMP_temperature;BMP_pressure;BME280_temperature;BME280_humidity;BME280_pressure;Samples;Min_cycle;Max_cycle;Signal;HPM_P1;HPM_P2
2022/08/16 00:02:06;;;;;;;8.00;4.82;;;;;;;17.70;84.00;94218.09;5009393;28;20215;-73
2022/08/16 00:04:35;;;;;;;10.13;5.63;;;;;;;17.70;84.29;94206.34;5010423;28;20212;-73
2022/08/16 00:07:03;;;;;;;8.40;5.10;;;;;;;17.69;84.37;94216.50;5012762;28;20200;-73
2022/08/16 00:09:30;;;;;;;9.27;4.90;;;;;;;17.70;84.69;94218.09;5012801;28;20228;-73
2022/08/16 00:11:57;;;;;;;8.88;5.05;;;;;;;17.69;84.36;94210.25;5012960;28;20209;-74
2022/08/16 00:14:29;;;;;;;7.55;5.18;;;;;;;17.68;84.58;94219.63;5005374;28;20229;-73
2022/08/16 00:16:56;;;;;;;7.70;4.82;;;;;;;17.58;84.74;94220.31;5007309;28;20209;-74
2022/08/16 00:19:26;;;;;;;7.20;5.00;;;;;;;17.56;84.68;94217.97;5013007;28;20205;-74
2022/08/16 00:21:54;;;;;;;10.52;5.88;;;;;;;17.58;84.99;94221.13;5012720;28;20248;-73
2022/08/16 00:24:22;;;;;;;9.77;5.22;;;;;;;17.67;85.93;94212.56;5012562;28;20275;-73
2022/08/16 00:26:49;;;;;;;8.48;5.07;;;;;;;17.62;86.04;94221.94;5013062;28;20272;-73
2022/08/16 00:29:17;;;;;;;9.93;5.88;;;;;;;17.52;86.52;94219.88;5012581;28;20707;-74
2022/08/16 00:31:45;;;;;;;7.78;5.18;;;;;;;17.52;86.73;94217.16;5012545;28;20204;-74
2022/08/16 00:34:12;;;;;;;9.13;5.85;;;;;;;17.48;88.11;94216.38;5012523;28;20743;-73
2022/08/16 00:36:39;;;;;;;10.38;6.50;;;;;;;17.66;87.93;94217.28;5012530;28;20263;-74
2022/08/16 00:39:07;;;;;;;8.48;5.05;;;;;;;17.58;87.66;94215.63;5011962;28;20270;-74
2022/08/16 00:41:35;;;;;;;6.97;5.13;;;;;;;17.51;87.52;94226.53;5012625;28;20259;-74
2022/08/16 00:44:09;;;;;;;8.43;4.85;;;;;;;17.45;88.13;94214.38;5012553;28;20209;-73
2022/08/16 00:46:41;;;;;;;7.50;4.10;;;;;;;17.43;88.51;94222.19;5012132;28;20246;-73
2022/08/16 00:49:11;;;;;;;9.40;4.85;;;;;;;17.44;87.75;94231.97;5012224;28;20575;-74
2022/08/16 00:51:38;;;;;;;11.05;5.57;;;;;;;17.51;87.36;94236.69;5011927;28;20201;-73
2022/08/16 00:54:07;;;;;;;10.93;5.30;;;;;;;17.61;86.76;94244.22;5011975;28;20549;-73
2022/08/16 00:56:37;;;;;;;8.88;5.20;;;;;;;17.61;87.06;94236.78;5012055;28;20622;-73
2022/08/16 00:59:05;;;;;;;6.85;4.68;;;;;;;17.43;86.84;94235.88;5012327;28;20328;-73
2022/08/16 01:01:32;;;;;;;11.88;6.32;;;;;;;17.22;87.53;94235.72;5011905;28;20595;-73
2022/08/16 01:04:00;;;;;;;7.28;5.10;;;;;;;17.09;89.09;94237.94;5012036;28;20658;-73
2022/08/16 01:06:29;;;;;;;8.75;5.35;;;;;;;17.00;89.55;94246.47;5011697;28;20201;-73
2022/08/16 01:08:57;;;;;;;6.00;4.22;;;;;;;16.97;90.49;94252.69;5011530;28;20266;-74
2022/08/16 01:11:27;;;;;;;7.28;4.25;;;;;;;17.05;89.43;94243.41;5011917;28;20238;-74
2022/08/16 01:13:59;;;;;;;10.57;6.07;;;;;;;17.19;89.40;94247.44;5008976;28;20217;-75
2022/08/16 01:16:27;;;;;;;11.32;5.20;;;;;;;17.30;88.77;94249.09;5000878;28;20263;-74
2022/08/16 01:19:01;;;;;;;8.90;4.88;;;;;;;17.45;87.85;94260.94;5012010;28;20260;-74
2022/08/16 01:21:39;;;;;;;8.35;5.25;;;;;;;17.53;87.25;94254.31;5011923;28;20201;-73
2022/08/16 01:24:16;;;;;;;8.25;4.78;;;;;;;17.60;87.21;94262.59;5011660;28;20271;-73
2022/08/16 01:26:45;;;;;;;11.25;8.20;;;;;;;17.70;86.47;94256.44;5011630;28;20267;-73
2022/08/16 01:29:18;;;;;;;9.93;5.00;;;;;;;17.82;86.52;94263.56;5011653;28;20255;-73
2022/08/16 01:31:45;;;;;;;9.85;5.28;;;;;;;17.89;86.51;94262.81;5011626;28;20315;-73
2022/08/16 01:34:14;;;;;;;8.52;5.50;;;;;;;17.85;85.97;94262.00;5011287;28;20219;-72
2022/08/16 01:36:41;;;;;;;7.90;4.68;;;;;;;17.79;86.36;94263.53;5011675;28;20201;-74
2022/08/16 01:39:12;;;;;;;8.18;5.20;;;;;;;17.75;87.19;94260.78;5011510;28;20209;-74
2022/08/16 01:41:40;;;;;;;9.00;5.30;;;;;;;17.72;87.19;94265.06;5011546;28;20607;-74
2022/08/16 01:44:07;;;;;;;9.90;5.82;;;;;;;17.63;88.13;94267.34;5011250;28;20197;-74
2022/08/16 01:46:38;;;;;;;8.55;5.57;;;;;;;17.66;87.84;94266.59;5011431;28;20205;-74
2022/08/16 01:49:08;;;;;;;9.15;5.22;;;;;;;17.67;88.24;94273.63;5010913;28;20232;-74
2022/08/16 01:51:36;;;;;;;8.93;5.75;;;;;;;17.72;88.09;94259.59;5011336;28;20211;-74
2022/08/16 01:54:03;;;;;;;9.57;5.80;;;;;;;17.85;87.63;94262.00;5010411;28;20288;-74
2022/08/16 01:56:33;;;;;;;13.10;5.90;;;;;;;17.91;87.31;94265.94;4998226;28;20209;-74
2022/08/16 01:59:05;;;;;;;10.63;5.85;;;;;;;17.67;87.37;94262.69;5011001;28;20740;-74
2022/08/16 02:01:33;;;;;;;11.02;6.40;;;;;;;17.65;88.28;94264.22;5011078;28;20201;-74
2022/08/16 02:04:01;;;;;;;8.00;5.65;;;;;;;17.83;87.54;94264.34;5010873;28;20217;-74
2022/08/16 02:06:28;;;;;;;9.02;4.95;;;;;;;17.80;87.67;94274.09;5010207;28;20649;-74
2022/08/16 02:08:55;;;;;;;9.45;5.35;;;;;;;17.80;88.01;94276.06;5010439;28;20233;-74
2022/08/16 02:11:23;;;;;;;9.30;5.38;;;;;;;17.79;87.75;94286.22;5010323;28;20200;-74
2022/08/16 02:13:51;;;;;;;7.47;5.28;;;;;;;17.77;88.11;94285.81;5010635;28;20664;-74
2022/08/16 02:16:18;;;;;;;8.73;5.60;;;;;;;17.83;87.98;94294.47;5010865;28;20233;-74
2022/08/16 02:18:45;;;;;;;9.65;5.50;;;;;;;17.87;87.86;94295.31;5010347;28;20292;-74
2022/08/16 02:21:14;;;;;;;14.90;9.05;;;;;;;17.95;87.56;94305.13;5010377;28;20663;-74
2022/08/16 02:23:41;;;;;;;13.50;9.63;;;;;;;17.79;88.73;94329.28;5009929;28;20208;-74
2022/08/16 02:26:09;;;;;;;7.28;5.28;;;;;;;17.96;88.19;94328.63;5010707;28;20305;-73
2022/08/16 02:28:36;;;;;;;6.32;4.35;;;;;;;18.01;87.32;94337.28;5010265;28;20722;-74
2022/08/16 02:31:08;;;;;;;6.35;4.75;;;;;;;18.05;86.69;94360.00;5010753;28;20652;-74
2022/08/16 02:33:36;;;;;;;8.88;5.88;;;;;;;18.13;85.47;94349.09;5010306;28;20200;-74
2022/08/16 02:36:04;;;;;;;9.15;6.47;;;;;;;18.18;85.94;94348.75;5010229;28;20280;-74
2022/08/16 02:38:32;;;;;;;7.32;4.95;;;;;;;18.11;86.26;94346.75;5009846;28;20209;-74
2022/08/16 02:41:01;;;;;;;8.27;5.28;;;;;;;18.21;86.12;94351.50;5010319;28;20207;-74
2022/08/16 02:43:30;;;;;;;7.10;5.18;;;;;;;18.25;85.76;94349.56;5009576;28;20209;-74
2022/08/16 02:45:58;;;;;;;9.45;5.40;;;;;;;18.28;85.40;94343.34;5010080;28;20220;-74
2022/08/16 02:48:29;;;;;;;9.55;5.22;;;;;;;18.26;85.66;94326.47;5009753;28;20278;-74
2022/08/16 02:50:56;;;;;;;9.30;5.40;;;;;;;18.29;85.55;94333.94;5009874;28;20221;-73
2022/08/16 02:53:23;;;;;;;9.38;6.93;;;;;;;18.37;85.16;94321.81;5009717;28;20205;-74
2022/08/16 02:55:51;;;;;;;7.40;5.18;;;;;;;18.29;85.81;94328.44;5009451;28;20258;-74
2022/08/16 02:58:17;;;;;;;8.90;5.47;;;;;;;18.25;85.80;94330.38;4996821;28;20765;-74
2022/08/16 03:00:44;;;;;;;9.30;5.65;;;;;;;18.20;86.12;94328.00;5010224;28;20291;-74
2022/08/16 03:03:12;;;;;;;8.00;4.68;;;;;;;18.24;85.66;94317.06;5010208;28;20208;-75
2022/08/16 03:05:40;;;;;;;7.22;5.22;;;;;;;18.23;85.94;94321.75;5009599;28;20259;-74
2022/08/16 03:08:08;;;;;;;15.77;9.20;;;;;;;18.22;85.52;94311.94;5010261;28;20205;-74
2022/08/16 03:10:35;;;;;;;13.10;7.68;;;;;;;18.19;85.79;94303.69;5009510;28;20236;-73
2022/08/16 03:13:02;;;;;;;7.70;5.07;;;;;;;18.21;85.61;94293.13;5009521;28;20288;-74
2022/08/16 03:15:29;;;;;;;10.68;8.00;;;;;;;18.18;85.67;94299.41;5009188;28;20295;-74
2022/08/16 03:17:57;;;;;;;10.00;8.02;;;;;;;18.15;85.48;94298.22;5010287;28;20201;-74
2022/08/16 03:20:24;;;;;;;12.07;8.93;;;;;;;18.23;86.10;94294.31;5009489;28;20226;-73
2022/08/16 03:22:52;;;;;;;9.73;5.20;;;;;;;18.13;87.06;94289.59;5009685;28;20736;-73
2022/08/16 03:25:19;;;;;;;6.78;4.57;;;;;;;18.22;86.40;94292.75;5009513;28;20627;-73
2022/08/16 03:27:46;;;;;;;11.30;4.85;;;;;;;18.10;87.05;94295.81;5009725;28;20197;-73
2022/08/16 03:30:15;;;;;;;6.72;4.35;;;;;;;18.04;86.96;94286.41;5009684;28;20283;-74
2022/08/16 03:32:42;;;;;;;7.07;4.28;;;;;;;18.15;86.44;94286.47;5009829;28;20204;-73
2022/08/16 03:35:09;;;;;;;11.20;5.32;;;;;;;18.09;86.34;94294.25;5009858;28;20211;-73
2022/08/16 03:37:36;;;;;;;10.05;6.05;;;;;;;18.01;86.93;94293.44;5009895;28;20259;-73
2022/08/16 03:40:06;;;;;;;11.82;5.70;;;;;;;18.02;87.25;94294.22;5009379;28;20209;-74
2022/08/16 03:42:33;;;;;;;12.02;9.18;;;;;;;18.07;87.18;94302.84;5009789;28;20216;-73
2022/08/16 03:45:00;;;;;;;8.32;5.22;;;;;;;18.14;87.11;94302.13;5009288;28;20254;-73
2022/08/16 03:47:28;;;;;;;10.23;6.18;;;;;;;18.50;85.63;94305.81;5009041;28;20205;-73
2022/08/16 03:49:56;;;;;;;7.47;5.50;;;;;;;18.73;83.60;94297.28;5008832;28;20228;-73
2022/08/16 03:52:24;;;;;;;13.18;9.35;;;;;;;18.84;83.29;94300.09;5009175;28;20247;-73
2022/08/16 03:54:51;;;;;;;11.90;8.77;;;;;;;19.28;82.05;94297.03;5008893;28;20201;-73
2022/08/16 03:57:19;;;;;;;8.77;5.80;;;;;;;19.84;79.98;94301.75;5009018;28;20235;-73
2022/08/16 03:59:46;;;;;;;8.95;5.10;;;;;;;20.32;77.93;94293.03;5009276;28;20787;-73
2022/08/16 04:02:13;;;;;;;14.70;7.57;;;;;;;20.24;77.53;94287.53;5009140;28;20330;-73
2022/08/16 04:04:40;;;;;;;9.10;5.55;;;;;;;20.18;77.35;94293.88;4995560;28;20201;-74
2022/08/16 04:07:07;;;;;;;10.05;5.78;;;;;;;19.96;78.31;94292.31;5009339;28;20212;-72
2022/08/16 04:09:35;;;;;;;7.20;4.95;;;;;;;19.98;78.97;94289.97;5009129;28;20229;-73
2022/08/16 04:12:02;;;;;;;7.07;4.78;;;;;;;20.05;78.36;94287.22;5008784;28;20297;-73
2022/08/16 04:14:31;;;;;;;7.60;5.03;;;;;;;20.20;76.89;94291.50;5008576;28;20323;-73
2022/08/16 04:16:59;;;;;;;9.77;5.28;;;;;;;19.84;77.56;94286.06;5008809;28;20888;-74
2022/08/16 04:19:27;;;;;;;13.05;4.65;;;;;;;19.46;79.06;94284.09;5009324;28;20204;-70
2022/08/16 04:21:55;;;;;;;7.70;5.28;;;;;;;19.37;79.78;94294.69;5008942;28;20259;-72
2022/08/16 04:24:22;;;;;;;7.65;4.68;;;;;;;19.24;80.26;94290.75;5008840;28;20259;-73
2022/08/16 04:26:48;;;;;;;10.38;5.00;;;;;;;19.10;80.97;94281.31;5009109;28;20676;-74
2022/08/16 04:29:16;;;;;;;11.88;7.65;;;;;;;19.06;81.20;94288.75;5009013;28;20213;-74
2022/08/16 04:31:44;;;;;;;8.88;4.85;;;;;;;19.12;81.22;94287.22;5008849;28;20205;-74
2022/08/16 04:34:11;;;;;;;7.55;4.97;;;;;;;19.12;81.04;94281.72;5009133;28;20201;-73
2022/08/16 04:36:37;;;;;;;13.00;8.40;;;;;;;19.32;80.80;94295.84;5008432;28;20247;-73
2022/08/16 04:39:04;;;;;;;7.30;5.10;;;;;;;19.10;82.57;94297.00;5009168;28;20263;-74
2022/08/16 04:41:32;;;;;;;7.80;5.40;;;;;;;20.01;81.42;94294.69;5009120;28;20236;-74
2022/08/16 04:43:59;;;;;;;12.98;8.63;;;;;;;21.39;76.06;94282.31;5009201;28;20201;-73
2022/08/16 04:46:26;;;;;;;11.27;6.57;;;;;;;21.97;72.68;94279.47;5008215;28;20204;-73
2022/08/16 04:48:55;;;;;;;8.00;5.35;;;;;;;21.31;74.60;94267.81;5008486;28;20201;-74
2022/08/16 04:51:22;;;;;;;8.18;5.32;;;;;;;20.56;77.94;94259.94;5009312;28;20235;-73
2022/08/16 04:53:49;;;;;;;9.60;6.15;;;;;;;20.07;80.42;94271.09;5012322;28;20234;-73
2022/08/16 04:56:16;;;;;;;9.57;5.90;;;;;;;19.76;80.96;94284.50;5012042;28;20205;-75
2022/08/16 04:58:43;;;;;;;9.52;5.85;;;;;;;20.14;81.20;94293.09;5012366;28;20215;-73
2022/08/16 05:01:10;;;;;;;9.38;5.50;;;;;;;21.26;77.98;94291.06;5011368;28;20201;-75
2022/08/16 05:03:37;;;;;;;14.50;10.05;;;;;;;21.82;75.90;94299.31;5012003;28;20213;-73
2022/08/16 05:06:06;;;;;;;13.32;9.15;;;;;;;22.38;72.60;94309.03;5012225;28;20259;-73
2022/08/16 05:08:33;;;;;;;13.85;10.20;;;;;;;23.37;68.77;94295.97;5012061;28;20201;-73
2022/08/16 05:11:01;;;;;;;9.43;6.00;;;;;;;23.16;68.02;94304.56;5011717;28;20236;-73
2022/08/16 05:13:28;;;;;;;8.10;5.97;;;;;;;24.88;63.68;94301.25;5011611;28;20573;-73
2022/08/16 05:15:55;;;;;;;13.38;8.63;;;;;;;25.71;60.18;94294.31;5011332;28;20232;-73
2022/08/16 05:18:22;;;;;;;14.80;8.88;;;;;;;27.22;55.24;94278.81;5011755;28;20265;-74
2022/08/16 05:20:49;;;;;;;12.95;9.18;;;;;;;27.56;54.13;94289.34;5011160;28;20209;-73
2022/08/16 05:23:18;;;;;;;12.60;8.20;;;;;;;28.14;52.17;94284.25;5011673;28;20204;-73
2022/08/16 05:25:45;;;;;;;11.15;8.48;;;;;;;28.37;50.95;94290.69;4998332;28;20201;-74
2022/08/16 05:28:12;;;;;;;11.43;8.48;;;;;;;29.23;49.25;94286.41;5011300;28;20200;-73
2022/08/16 05:30:39;;;;;;;11.60;8.30;;;;;;;29.45;48.06;94298.34;5010965;28;20704;-73
2022/08/16 05:33:06;;;;;;;11.93;8.68;;;;;;;28.88;49.66;94289.28;5011313;28;20202;-73
2022/08/16 05:35:32;;;;;;;9.55;8.02;;;;;;;29.65;47.92;94287.59;5011346;28;20201;-73
2022/08/16 05:37:59;;;;;;;10.52;7.88;;;;;;;30.88;45.47;94282.88;5011067;28;20197;-73
2022/08/16 05:40:27;;;;;;;10.60;8.32;;;;;;;30.03;45.44;94287.28;5010970;28;20201;-72
2022/08/16 05:42:55;;;;;;;11.82;8.40;;;;;;;28.98;49.03;94276.94;5011322;28;20726;-73
2022/08/16 05:45:22;;;;;;;12.48;9.27;;;;;;;29.25;48.17;94289.50;5011010;28;20271;-73
2022/08/16 05:47:49;;;;;;;10.73;8.93;;;;;;;28.73;49.69;94288.19;5010570;28;20314;-73
2022/08/16 05:50:16;;;;;;;11.63;8.65;;;;;;;28.55;50.42;94291.63;5010578;28;20228;-73
2022/08/16 05:52:42;;;;;;;11.15;8.43;;;;;;;27.26;52.85;94301.75;5010628;28;20197;-73
2022/08/16 05:55:10;;;;;;;13.35;8.88;;;;;;;27.85;52.87;94297.56;5010735;28;20209;-73
2022/08/16 05:57:38;;;;;;;11.43;7.93;;;;;;;28.68;50.31;94283.22;5011077;28;20209;-73
2022/08/16 06:00:08;;;;;;;10.55;8.57;;;;;;;29.57;47.83;94277.91;5010209;28;20205;-73
2022/08/16 06:02:35;;;;;;;11.82;8.75;;;;;;;29.99;45.88;94274.69;5010210;28;20204;-73
2022/08/16 06:05:02;;;;;;;12.63;9.30;;;;;;;31.16;43.62;94280.84;5010637;28;20193;-72
2022/08/16 06:07:28;;;;;;;10.32;8.68;;;;;;;31.39;43.11;94276.59;5010025;28;20553;-73
2022/08/16 06:09:57;;;;;;;10.82;8.20;;;;;;;31.27;43.35;94283.16;5009842;28;20664;-73
2022/08/16 06:12:25;;;;;;;10.30;8.73;;;;;;;31.64;41.97;94293.03;5010128;28;20193;-73
2022/08/16 06:14:56;;;;;;;11.88;8.23;;;;;;;31.67;42.63;94283.69;5009373;28;20712;-73
2022/08/16 06:17:22;;;;;;;10.15;8.02;;;;;;;31.56;42.08;94275.00;5010691;28;20209;-73
2022/08/16 06:19:50;;;;;;;10.32;7.88;;;;;;;32.40;40.45;94274.13;5010228;28;20216;-73
2022/08/16 06:22:16;;;;;;;9.95;7.65;;;;;;;32.18;40.91;94274.41;5010668;28;20531;-73
2022/08/16 06:24:43;;;;;;;10.63;7.45;;;;;;;32.62;40.39;94279.44;5009884;28;20687;-74
2022/08/16 06:27:10;;;;;;;10.07;7.57;;;;;;;32.79;39.32;94272.94;5010515;28;20295;-74
2022/08/16 06:29:37;;;;;;;9.70;7.72;;;;;;;32.76;39.17;94281.53;5010969;28;20259;-73
2022/08/16 06:32:06;;;;;;;9.80;8.25;;;;;;;31.79;41.20;94282.72;5010434;28;20232;-74
2022/08/16 06:34:34;;;;;;;8.80;7.55;;;;;;;30.57;43.34;94279.47;5010258;28;20311;-73
2022/08/16 06:37:01;;;;;;;9.60;7.82;;;;;;;30.93;42.88;94273.84;5009983;28;20571;-74
2022/08/16 06:39:28;;;;;;;10.68;7.47;;;;;;;32.35;40.12;94267.16;5010299;28;20692;-73
2022/08/16 06:41:55;;;;;;;9.05;7.03;;;;;;;32.74;39.25;94265.19;5010175;28;20201;-73
2022/08/16 06:44:23;;;;;;;9.18;7.57;;;;;;;32.42;40.03;94278.00;5010225;28;20221;-73
2022/08/16 06:46:50;;;;;;;9.57;7.07;;;;;;;31.94;41.95;94274.38;5009782;28;20204;-72
2022/08/16 06:49:18;;;;;;;11.98;7.63;;;;;;;31.32;41.97;94271.31;5009713;28;20255;-73
2022/08/16 06:51:45;;;;;;;9.20;7.60;;;;;;;31.61;40.89;94267.97;5009816;28;20225;-73
2022/08/16 06:54:12;;;;;;;8.25;6.72;;;;;;;32.68;39.55;94260.69;5010270;28;20300;-73
2022/08/16 06:56:39;;;;;;;10.85;7.20;;;;;;;34.05;37.42;94256.47;5009495;28;20232;-73
2022/08/16 06:59:06;;;;;;;10.93;7.22;;;;;;;34.69;36.38;94259.16;5009784;28;20209;-73
2022/08/16 07:01:34;;;;;;;7.95;6.80;;;;;;;32.93;39.47;94260.19;5009499;28;20213;-73
2022/08/16 07:04:00;;;;;;;11.98;7.35;;;;;;;31.95;40.83;94261.16;5009354;28;20270;-73
2022/08/16 07:06:30;;;;;;;11.63;7.60;;;;;;;32.69;40.13;94251.00;5009523;28;20541;-73
2022/08/16 07:08:57;;;;;;;8.95;6.90;;;;;;;33.10;38.94;94241.59;5009775;28;20205;-74
2022/08/16 07:11:25;;;;;;;8.43;7.25;;;;;;;33.50;38.39;94249.47;5010105;28;20228;-73
2022/08/16 07:13:53;;;;;;;9.38;7.40;;;;;;;33.30;39.53;94248.63;5009389;28;20212;-73
2022/08/16 07:16:20;;;;;;;10.10;7.63;;;;;;;32.60;40.39;94246.25;5000737;28;20232;-73
2022/08/16 07:18:48;;;;;;;13.23;7.75;;;;;;;32.01;40.63;94253.63;5006540;28;20205;-74
2022/08/16 07:21:15;;;;;;;8.93;7.43;;;;;;;31.69;41.73;94244.00;5009754;28;20635;-74
2022/08/16 07:23:45;;;;;;;8.88;7.03;;;;;;;31.72;41.49;94241.00;5009765;28;20208;-73
2022/08/16 07:26:18;;;;;;;8.82;6.95;;;;;;;31.23;42.95;94235.72;5009003;28;20223;-73
2022/08/16 07:28:45;;;;;;;10.07;7.90;;;;;;;30.77;43.51;94226.59;5009146;28;20209;-73
2022/08/16 07:31:11;;;;;;;9.80;7.80;;;;;;;31.33;42.73;94231.66;5009502;28;20314;-73
2022/08/16 07:33:39;;;;;;;10.07;8.15;;;;;;;30.20;45.32;94242.28;5009563;28;20205;-73
2022/08/16 07:36:08;;;;;;;10.23;7.38;;;;;;;30.80;44.64;94236.09;5009185;28;20208;-73
2022/08/16 07:38:35;;;;;;;9.68;7.85;;;;;;;30.99;42.96;94230.00;5009143;28;20279;-73
2022/08/16 07:41:04;;;;;;;11.23;8.27;;;;;;;29.74;45.71;94246.97;5008785;28;20236;-73
2022/08/16 07:43:31;;;;;;;11.77;8.93;;;;;;;29.80;45.31;94250.69;5009203;28;20406;-73
2022/08/16 07:45:59;;;;;;;11.05;7.53;;;;;;;28.95;47.50;94249.97;5008966;28;20578;-74
2022/08/16 07:48:27;;;;;;;10.00;7.18;;;;;;;29.92;45.90;94245.00;4996290;28;20216;-73
2022/08/16 07:50:54;;;;;;;11.20;8.43;;;;;;;29.75;46.21;94234.56;5009421;28;20224;-72
2022/08/16 07:53:22;;;;;;;10.63;7.90;;;;;;;29.81;46.03;94241.06;5008797;28;20255;-72
2022/08/16 07:55:49;;;;;;;8.88;7.38;;;;;;;30.13;45.94;94246.16;5009014;28;20197;-73
2022/08/16 07:58:17;;;;;;;10.23;8.15;;;;;;;29.27;47.56;94245.94;5009234;28;20262;-74
2022/08/16 08:00:44;;;;;;;9.50;7.13;;;;;;;30.17;45.69;94246.78;5009621;28;20263;-74
2022/08/16 08:03:12;;;;;;;11.23;8.35;;;;;;;29.44;46.45;94252.13;5009141;28;20200;-74
2022/08/16 08:05:39;;;;;;;10.63;7.50;;;;;;;29.47;46.86;94256.78;5009073;28;20239;-73
2022/08/16 08:08:06;;;;;;;10.20;7.55;;;;;;;28.79;48.99;94252.19;5009432;28;20212;-73
2022/08/16 08:10:33;;;;;;;9.90;7.30;;;;;;;28.74;48.41;94247.94;5009158;28;20679;-74
2022/08/16 08:13:00;;;;;;;10.63;8.07;;;;;;;29.08;48.35;94251.91;5008991;28;20216;-73
2022/08/16 08:15:29;;;;;;;9.65;7.75;;;;;;;28.10;49.90;94258.53;5008704;28;20576;-73
2022/08/16 08:17:56;;;;;;;10.27;6.93;;;;;;;29.08;49.24;94257.50;5008914;28;20205;-74
2022/08/16 08:20:25;;;;;;;9.35;7.38;;;;;;;29.20;47.85;94259.41;5008940;28;20702;-73
2022/08/16 08:22:54;;;;;;;11.15;8.43;;;;;;;28.63;49.62;94258.69;5009074;28;20215;-73
2022/08/16 08:25:21;;;;;;;11.02;8.02;;;;;;;28.75;49.96;94249.50;5009316;28;20668;-72
2022/08/16 08:27:48;;;;;;;9.82;7.90;;;;;;;29.73;47.90;94245.41;5012413;28;20572;-73
2022/08/16 08:30:15;;;;;;;10.45;8.15;;;;;;;30.14;46.33;94255.31;5012586;28;20286;-72
2022/08/16 08:32:43;;;;;;;9.68;7.03;;;;;;;29.76;47.60;94255.66;5012802;28;20236;-72
2022/08/16 08:35:11;;;;;;;11.60;8.27;;;;;;;29.64;47.69;94255.31;5012790;28;20204;-73
2022/08/16 08:37:39;;;;;;;10.90;7.00;;;;;;;29.33;47.12;94258.09;5012630;28;20236;-72
2022/08/16 08:40:09;;;;;;;9.00;7.45;;;;;;;28.95;49.07;94249.97;5012482;28;20262;-73
2022/08/16 08:42:36;;;;;;;8.77;7.15;;;;;;;28.99;48.62;94256.19;5012660;28;20216;-73
2022/08/16 08:45:04;;;;;;;8.27;6.72;;;;;;;29.22;49.13;94248.56;5012173;28;20229;-72
2022/08/16 08:47:31;;;;;;;9.30;7.13;;;;;;;28.77;47.64;94258.19;5012121;28;20270;-73
2022/08/16 08:49:59;;;;;;;8.85;6.93;;;;;;;28.64;49.03;94252.69;5011985;28;20209;-73
2022/08/16 08:52:27;;;;;;;11.52;7.10;;;;;;;29.13;47.57;94254.09;5012250;28;20279;-73
2022/08/16 08:54:54;;;;;;;6.75;5.97;;;;;;;29.56;46.89;94251.22;5011941;28;20201;-73
2022/08/16 08:57:21;;;;;;;8.38;6.45;;;;;;;29.21;46.71;94249.81;5012400;28;20201;-73
2022/08/16 08:59:48;;;;;;;8.52;6.70;;;;;;;28.97;47.39;94252.31;5012026;28;20205;-74
2022/08/16 09:02:17;;;;;;;8.68;6.97;;;;;;;29.35;46.32;94255.63;5012240;28;20633;-73
2022/08/16 09:04:44;;;;;;;9.63;6.53;;;;;;;29.50;46.15;94241.13;5011771;28;20295;-73
2022/08/16 09:07:13;;;;;;;7.68;6.10;;;;;;;30.07;44.52;94242.41;5011929;28;20725;-74
2022/08/16 09:09:40;;;;;;;6.72;5.72;;;;;;;30.40;43.96;94237.78;4999222;28;20248;-73
2022/08/16 09:12:08;;;;;;;7.50;5.75;;;;;;;30.49;44.12;94228.63;5011868;28;20310;-72
2022/08/16 09:14:37;;;;;;;7.50;6.38;;;;;;;30.39;43.91;94241.81;5010742;28;20729;-73
2022/08/16 09:17:04;;;;;;;5.30;4.40;;;;;;;30.55;39.73;94234.41;5011740;28;20189;-73
2022/08/16 09:19:32;;;;;;;7.85;4.68;;;;;;;31.24;41.09;94230.91;5011766;28;20209;-73
2022/08/16 09:21:59;;;;;;;5.82;4.85;;;;;;;31.91;39.69;94233.28;5011777;28;20619;-74
2022/08/16 09:24:27;;;;;;;5.15;3.67;;;;;;;31.83;37.14;94236.94;5011566;28;20227;-73
2022/08/16 09:26:54;;;;;;;4.22;3.78;;;;;;;31.18;38.25;94249.56;5010660;28;20216;-75
2022/08/16 09:29:21;;;;;;;5.93;3.97;;;;;;;30.12;39.57;94250.19;5011509;28;20591;-75
2022/08/16 09:31:48;;;;;;;5.88;4.25;;;;;;;30.84;39.20;94237.50;5011625;28;20583;-74
2022/08/16 09:34:15;;;;;;;5.45;4.53;;;;;;;31.19;37.90;94234.34;5011393;28;20263;-74
2022/08/16 09:36:43;;;;;;;4.20;3.80;;;;;;;31.08;38.28;94240.41;5010682;28;20212;-75
2022/08/16 09:39:09;;;;;;;5.03;4.22;;;;;;;31.47;36.60;94233.00;5011448;28;20704;-74
2022/08/16 09:41:38;;;;;;;4.75;3.50;;;;;;;31.15;37.16;94236.53;5011598;28;20357;-74
2022/08/16 09:44:06;;;;;;;4.93;3.67;;;;;;;30.63;37.81;94232.84;5010870;28;20225;-74
2022/08/16 09:46:33;;;;;;;6.30;4.40;;;;;;;31.39;37.01;94221.38;5011414;28;20225;-74
2022/08/16 09:49:00;;;;;;;4.25;3.80;;;;;;;31.45;37.31;94232.69;5011598;28;20205;-74
2022/08/16 09:51:27;;;;;;;4.78;4.10;;;;;;;31.06;37.82;94226.88;5011316;28;20287;-76
2022/08/16 09:53:55;;;;;;;4.78;3.80;;;;;;;31.26;37.95;94239.63;5011594;28;20213;-74
2022/08/16 09:56:28;;;;;;;3.90;3.28;;;;;;;31.12;37.32;94229.09;5011255;28;20212;-74
2022/08/16 09:58:58;;;;;;;4.88;4.38;;;;;;;31.00;37.72;94239.97;5010843;28;20204;-74
2022/08/16 10:01:25;;;;;;;5.10;3.83;;;;;;;31.38;37.02;94238.63;5010705;28;20248;-74
2022/08/16 10:03:53;;;;;;;6.25;4.10;;;;;;;31.92;35.98;94228.47;5011062;28;20217;-74
2022/08/16 10:06:21;;;;;;;4.97;3.97;;;;;;;32.13;36.05;94227.38;5010334;28;20251;-74
2022/08/16 10:08:49;;;;;;;4.97;4.38;;;;;;;32.24;35.10;94236.09;5011407;28;20209;-74
2022/08/16 10:14:02;;;;;;;5.32;4.60;;;;;;;32.35;34.98;94233.50;5010557;28;20223;-76
2022/08/16 10:16:30;;;;;;;3.97;3.58;;;;;;;31.34;36.80;94232.44;5010797;28;20196;-75
2022/08/16 10:18:57;;;;;;;7.40;4.07;;;;;;;31.19;38.37;94231.53;5010574;28;20216;-74
2022/08/16 10:21:24;;;;;;;4.80;3.67;;;;;;;31.44;36.04;94222.72;5010661;28;20834;-76
2022/08/16 10:23:53;;;;;;;5.00;4.50;;;;;;;31.70;35.47;94232.31;5010108;28;20213;-74
2022/08/16 10:26:23;;;;;;;4.88;4.20;;;;;;;31.16;36.57;94221.31;5010333;28;20284;-74
2022/08/16 10:28:50;;;;;;;4.30;3.90;;;;;;;31.03;35.80;94222.22;5009730;28;20205;-73
2022/08/16 10:31:18;;;;;;;6.00;4.38;;;;;;;31.43;35.32;94215.63;5009331;28;20204;-73
2022/08/16 10:33:46;;;;;;;3.80;3.50;;;;;;;31.44;35.53;94222.72;5009855;28;20727;-74
2022/08/16 10:36:13;;;;;;;4.65;3.90;;;;;;;31.38;35.46;94222.63;5010044;28;20209;-74
2022/08/16 10:38:41;;;;;;;4.35;3.75;;;;;;;31.20;36.25;94224.69;5009715;28;20658;-73
2022/08/16 10:41:10;;;;;;;5.43;3.45;;;;;;;30.94;35.89;94227.84;5010016;28;20205;-73
2022/08/16 10:43:39;;;;;;;4.50;3.83;;;;;;;31.03;36.17;94233.41;5009235;28;20712;-78
2022/08/16 10:46:08;;;;;;;6.43;3.83;;;;;;;31.18;35.57;94224.38;5009600;28;20255;-73
2022/08/16 10:48:36;;;;;;;5.65;3.75;;;;;;;30.55;35.86;94226.03;4990233;28;20316;-73
2022/08/16 10:51:04;;;;;;;4.88;4.05;;;;;;;30.71;35.11;94228.50;5004179;28;20201;-72
2022/08/16 10:53:32;;;;;;;4.55;3.42;;;;;;;29.70;40.19;94242.28;5009832;28;20248;-78
2022/08/16 10:56:00;;;;;;;7.60;4.70;;;;;;;28.81;42.41;94233.78;5009318;28;20197;-79
2022/08/16 10:58:27;;;;;;;5.22;3.92;;;;;;;28.51;43.09;94234.44;5009744;28;20761;-74
2022/08/16 11:00:54;;;;;;;4.88;4.38;;;;;;;28.82;42.59;94235.34;5008719;28;20681;-74
2022/08/16 11:03:21;;;;;;;4.13;3.53;;;;;;;29.74;40.99;94230.19;5009558;28;20209;-74
2022/08/16 11:05:50;;;;;;;4.70;3.65;;;;;;;30.14;39.37;94227.38;5009558;28;20240;-74
2022/08/16 11:08:17;;;;;;;4.30;3.58;;;;;;;29.99;37.14;94235.56;5009616;28;20201;-77
2022/08/16 11:10:46;;;;;;;4.65;3.97;;;;;;;30.33;38.08;94226.16;5009879;28;20208;-74
2022/08/16 11:13:16;;;;;;;5.00;3.58;;;;;;;30.48;37.95;94227.06;5009704;28;20328;-74
2022/08/16 11:15:44;;;;;;;5.68;3.47;;;;;;;30.29;37.15;94226.31;5009445;28;20229;-75
2022/08/16 11:18:12;;;;;;;4.70;3.67;;;;;;;30.31;37.98;94223.81;5009710;28;20216;-75
2022/08/16 11:20:41;;;;;;;5.00;4.13;;;;;;;30.49;36.99;94223.03;5009550;28;20201;-75
2022/08/16 11:23:10;;;;;;;4.82;3.92;;;;;;;30.74;36.54;94210.78;5009742;28;20251;-75
2022/08/16 11:25:38;;;;;;;4.32;3.83;;;;;;;30.26;37.32;94207.66;5009356;28;20631;-74
2022/08/16 11:28:06;;;;;;;4.13;3.72;;;;;;;30.67;37.70;94211.09;5009474;28;20553;-75
2022/08/16 11:30:34;;;;;;;6.63;3.80;;;;;;;30.35;37.69;94221.63;5009038;28;20213;-74
2022/08/16 11:33:01;;;;;;;4.97;3.83;;;;;;;30.57;37.57;94203.97;5008880;28;20651;-73
2022/08/16 11:35:31;;;;;;;5.07;3.92;;;;;;;30.69;37.38;94208.59;5009340;28;20275;-75
2022/08/16 11:38:00;;;;;;;4.40;3.80;;;;;;;30.82;37.38;94200.81;5009287;28;20212;-75